Time;durP1;ratioP1;P1;durP2;ratioP2;P2;SDS_P1;SDS_P2;PMS_P1;PMS_P2;Temp;Humidity;BMP_temperature;BMP_pressure;BME280_temperature;BME280_humidity;BME280_pressure;Samples;Min_cycle;Max_cycle;Signal;HPM_P1;HPM_P2
2022/03/04 00:00:56;;;;;;;35.27;17.43;;;2.00;50.80;;;2.54;44.72;97678.25;6235301;23;20019;-35
2022/03/04 00:03:24;;;;;;;31.53;15.57;;;2.00;50.70;;;2.49;44.47;97675.94;6234705;23;20012;-35
2022/03/04 00:05:52;;;;;;;32.83;14.73;;;2.00;50.80;;;2.48;44.76;97674.28;6234019;23;20028;-35
2022/03/04 00:08:20;;;;;;;30.53;15.00;;;2.00;50.80;;;2.46;44.62;97678.81;6234760;23;20020;-34
2022/03/04 00:10:48;;;;;;;29.07;13.77;;;1.90;51.10;;;2.44;44.39;97680.69;6235399;23;20034;-35
2022/03/04 00:13:16;;;;;;;21.40;12.70;;;1.90;51.20;;;2.41;44.72;97685.34;6233999;23;20036;-35
2022/03/04 00:15:44;;;;;;;23.97;12.67;;;1.80;51.30;;;2.39;44.85;97689.88;6235383;23;20027;-35
2022/03/04 00:18:11;;;;;;;28.30;14.80;;;1.80;51.20;;;2.35;44.53;97674.31;6234980;23;20038;-35
2022/03/04 00:20:39;;;;;;;29.33;14.57;;;1.80;51.00;;;2.35;44.83;97684.00;6236397;23;20189;-35
2022/03/04 00:23:07;;;;;;;27.03;13.63;;;1.80;51.00;;;2.28;44.78;97682.72;6237409;23;20012;-35
2022/03/04 00:25:35;;;;;;;21.53;12.83;;;1.70;51.20;;;2.25;45.04;97681.16;6236338;23;20024;-35
2022/03/04 00:28:03;;;;;;;25.93;14.33;;;1.70;51.20;;;2.25;44.70;97678.53;6234862;23;20024;-35
2022/03/04 00:30:31;;;;;;;27.53;13.73;;;1.70;51.30;;;2.23;45.36;97677.81;6208002;23;20311;-36
2022/03/04 00:32:59;;;;;;;22.37;12.50;;;1.70;51.40;;;2.20;45.10;97685.91;6237893;23;20218;-35
2022/03/04 00:35:27;;;;;;;26.63;13.97;;;1.60;51.50;;;2.18;45.11;97685.16;6234936;23;20016;-35
2022/03/04 00:37:55;;;;;;;22.83;12.40;;;1.60;51.60;;;2.20;44.85;97683.28;6236486;23;20022;-35
2022/03/04 00:40:23;;;;;;;22.43;12.90;;;1.60;51.40;;;2.18;45.02;97687.78;6234198;23;20020;-36
2022/03/04 00:42:51;;;;;;;23.33;11.80;;;1.60;51.30;;;2.18;45.11;97682.53;6236870;23;20038;-35
2022/03/04 00:45:18;;;;;;;18.60;11.20;;;1.60;51.20;;;2.19;44.63;97686.00;6234896;23;20046;-35
2022/03/04 00:47:46;;;;;;;17.50;10.53;;;1.60;51.00;;;2.19;44.81;97691.25;6237260;23;20672;-35
2022/03/04 00:50:14;;;;;;;18.20;11.00;;;1.60;51.00;;;2.14;44.77;97686.34;6235985;23;20071;-35
2022/03/04 00:52:42;;;;;;;20.27;11.97;;;1.60;51.00;;;2.09;44.72;97680.56;6235231;23;20274;-35
2022/03/04 00:55:10;;;;;;;20.60;11.40;;;1.50;51.10;;;2.04;45.28;97677.44;6235714;23;20326;-35
2022/03/04 00:57:38;;;;;;;19.57;10.93;;;1.50;51.30;;;2.03;44.62;97686.25;6237376;23;20020;-35
2022/03/04 01:00:07;;;;;;;17.73;10.87;;;1.50;51.40;;;2.04;44.89;97683.50;6236791;23;20222;-35
2022/03/04 01:02:34;;;;;;;16.93;10.20;;;1.50;51.20;;;2.01;44.79;97682.88;6238298;23;20012;-35
2022/03/04 01:05:03;;;;;;;17.93;10.50;;;1.50;51.40;;;2.00;44.75;97687.31;6235231;23;20020;-35
2022/03/04 01:07:31;;;;;;;17.07;10.43;;;1.50;51.30;;;2.02;44.64;97680.16;6233801;23;20034;-36
2022/03/04 01:09:59;;;;;;;15.23;9.90;;;1.50;51.20;;;2.03;45.05;97683.63;6234456;23;20038;-36
2022/03/04 01:12:26;;;;;;;16.60;10.33;;;1.50;51.10;;;2.03;45.21;97683.63;6235973;23;20442;-36
2022/03/04 01:14:55;;;;;;;15.23;10.03;;;1.50;51.50;;;2.02;45.30;97688.03;6236077;23;20016;-36
2022/03/04 01:17:24;;;;;;;14.43;8.93;;;1.50;51.70;;;2.01;45.06;97685.50;6235350;23;20337;-36
2022/03/04 01:19:52;;;;;;;20.27;10.47;;;1.50;52.00;;;1.99;44.80;97690.03;6236096;23;20020;-36
2022/03/04 01:22:20;;;;;;;16.27;9.60;;;1.40;51.80;;;1.96;45.61;97693.72;6248250;23;20022;-36
2022/03/04 01:24:48;;;;;;;20.67;9.93;;;1.40;52.10;;;1.93;45.25;97681.63;6235373;23;20017;-35
2022/03/04 01:27:15;;;;;;;17.07;10.07;;;1.40;52.40;;;1.93;45.56;97684.25;6238190;23;20015;-35
2022/03/04 01:29:44;;;;;;;19.27;9.73;;;1.40;51.80;;;1.91;45.34;97680.06;6236663;23;20016;-35
2022/03/04 01:32:12;;;;;;;19.20;11.17;;;1.40;52.10;;;1.91;45.43;97680.88;6231651;23;20027;-36
2022/03/04 01:34:40;;;;;;;16.30;9.87;;;1.40;52.00;;;1.90;45.62;97675.72;6236191;23;20229;-36
2022/03/04 01:37:08;;;;;;;16.97;9.60;;;1.30;51.80;;;1.86;45.38;97675.13;6235712;23;20030;-35
2022/03/04 01:39:37;;;;;;;21.43;10.23;;;1.40;52.20;;;1.84;45.41;97671.78;6237232;23;20644;-36
2022/03/04 01:42:06;;;;;;;17.67;10.07;;;1.30;52.30;;;1.82;45.79;97672.81;6237325;23;20012;-35
2022/03/04 01:44:34;;;;;;;19.30;10.53;;;1.20;52.60;;;1.80;45.82;97669.44;6237186;23;20020;-35
2022/03/04 01:47:02;;;;;;;21.47;10.83;;;1.20;52.80;;;1.79;46.02;97667.78;6209170;23;20330;-35
2022/03/04 01:49:32;;;;;;;18.83;11.10;;;1.20;52.80;;;1.80;46.11;97667.66;6236021;23;20517;-35
2022/03/04 01:52:00;;;;;;;18.93;10.47;;;1.20;52.60;;;1.81;45.76;97669.34;6236286;23;20028;-35
2022/03/04 01:54:28;;;;;;;21.70;11.43;;;1.30;52.90;;;1.78;46.12;97661.66;6210172;23;20024;-35
2022/03/04 01:56:56;;;;;;;19.80;12.23;;;1.20;53.10;;;1.76;46.36;97663.56;6237637;23;20012;-35
2022/03/04 01:59:24;;;;;;;25.23;14.60;;;1.20;53.10;;;1.72;45.97;97668.19;6236437;23;20026;-35
2022/03/04 02:01:53;;;;;;;32.07;16.43;;;1.10;53.30;;;1.70;46.29;97664.81;6236897;23;20303;-35
2022/03/04 02:04:23;;;;;;;42.07;21.77;;;1.20;53.30;;;1.69;46.00;97673.66;6235557;23;20020;-35
2022/03/04 02:06:52;;;;;;;64.80;28.30;;;1.10;53.60;;;1.69;46.83;97663.16;6234766;23;20016;-35
2022/03/04 02:09:20;;;;;;;53.27;26.97;;;1.10;53.90;;;1.68;46.60;97658.84;6234064;23;20230;-36
2022/03/04 02:11:49;;;;;;;37.27;19.83;;;1.10;53.80;;;1.67;46.89;97657.19;6237615;23;20022;-35
2022/03/04 02:14:17;;;;;;;29.13;16.83;;;1.10;53.70;;;1.68;46.79;97658.00;6235842;23;20026;-35
2022/03/04 02:16:51;;;;;;;28.20;15.70;;;1.10;53.70;;;1.68;46.67;97660.63;6234751;23;20026;-36
2022/03/04 02:19:21;;;;;;;27.30;16.10;;;1.20;53.80;;;1.66;46.01;97655.47;6234767;23;20016;-35
2022/03/04 02:22:15;;;;;;;27.93;15.90;;;1.10;53.60;;;1.63;46.86;97652.22;6236811;23;20026;-36
2022/03/04 02:24:43;;;;;;;24.15;16.35;;;1.10;55.00;;;1.61;47.09;97654.13;6231357;23;20024;-36
2022/03/04 02:27:11;;;;;;;27.53;16.27;;;1.10;54.30;;;1.60;46.90;97655.09;6235071;23;20047;-35
2022/03/04 02:29:39;;;;;;;25.13;15.33;;;1.00;54.20;;;1.58;46.49;97653.38;6235291;23;20031;-35
2022/03/04 02:32:07;;;;;;;20.87;12.93;;;1.10;54.40;;;1.55;47.03;97658.00;6236772;23;20214;-35
2022/03/04 02:34:35;;;;;;;20.87;12.60;;;1.00;54.30;;;1.53;47.22;97658.13;6235404;23;20016;-35
2022/03/04 02:37:03;;;;;;;19.63;11.60;;;1.00;54.50;;;1.52;46.44;97653.81;6235334;23;20012;-35
2022/03/04 02:39:31;;;;;;;20.30;13.77;;;1.00;54.40;;;1.50;46.95;97654.88;6235872;23;20245;-35
2022/03/04 02:41:59;;;;;;;23.90;13.10;;;0.90;54.50;;;1.48;47.35;97652.34;6235854;23;20020;-35
2022/03/04 02:44:27;;;;;;;19.73;12.67;;;0.90;54.70;;;1.46;46.88;97656.84;6234942;23;20167;-35
2022/03/04 02:46:55;;;;;;;24.83;13.23;;;0.90;54.70;;;1.45;46.80;97649.91;6236661;23;20024;-35
2022/03/04 02:49:22;;;;;;;21.97;12.67;;;0.90;54.80;;;1.47;47.11;97660.31;6235917;23;20024;-35
2022/03/04 02:51:50;;;;;;;18.63;11.60;;;0.90;54.10;;;1.47;47.20;97663.75;6236569;23;20022;-35
2022/03/04 02:54:18;;;;;;;18.27;10.60;;;1.00;54.10;;;1.43;46.77;97653.59;6234568;23;20027;-35
2022/03/04 02:56:46;;;;;;;18.13;10.67;;;0.90;54.20;;;1.43;46.76;97656.22;6233455;23;20034;-35
2022/03/04 02:59:14;;;;;;;16.50;10.00;;;0.90;54.20;;;1.43;46.77;97656.22;6232895;23;20022;-35
2022/03/04 03:01:42;;;;;;;21.57;10.87;;;0.90;54.00;;;1.45;46.49;97662.19;6235785;23;20012;-35
2022/03/04 03:04:10;;;;;;;16.87;11.00;;;0.90;53.40;;;1.46;46.11;97664.72;6209276;23;20018;-35
2022/03/04 03:06:38;;;;;;;18.90;10.43;;;1.00;53.30;;;1.46;46.23;97661.28;6235304;23;20019;-35
2022/03/04 03:09:05;;;;;;;19.13;9.90;;;1.00;53.40;;;1.48;46.16;97662.00;6235470;23;20043;-35
2022/03/04 03:11:34;;;;;;;19.20;11.33;;;1.00;53.30;;;1.45;47.02;97664.81;6237024;23;20016;-35
2022/03/04 03:14:02;;;;;;;18.33;10.23;;;1.00;53.50;;;1.42;47.03;97659.81;6234252;23;20683;-35
2022/03/04 03:16:30;;;;;;;18.53;10.57;;;0.90;53.70;;;1.41;46.54;97661.56;6235506;23;20020;-35
2022/03/04 03:18:58;;;;;;;17.03;9.70;;;0.90;53.40;;;1.40;46.42;97664.28;6235303;23;20018;-35
2022/03/04 03:21:26;;;;;;;21.00;11.03;;;0.90;53.90;;;1.35;47.07;97665.44;6208388;23;20024;-35
2022/03/04 03:23:54;;;;;;;20.13;10.13;;;0.80;53.70;;;1.32;46.57;97668.28;6235413;23;20012;-35
2022/03/04 03:26:23;;;;;;;17.73;10.77;;;0.80;54.00;;;1.28;47.27;97658.94;6233815;23;20031;-35
2022/03/04 03:28:51;;;;;;;17.53;10.20;;;0.80;53.90;;;1.24;46.96;97669.72;6233122;23;20042;-35
2022/03/04 03:31:19;;;;;;;17.63;10.27;;;0.70;54.30;;;1.17;47.00;97659.66;6234932;23;20028;-35
2022/03/04 03:33:47;;;;;;;17.77;10.60;;;0.60;54.50;;;1.15;46.60;97661.53;6235534;23;20210;-35
2022/03/04 03:36:14;;;;;;;21.40;12.33;;;0.60;54.40;;;1.13;46.61;97663.41;6235791;23;20372;-37
2022/03/04 03:38:42;;;;;;;29.07;14.03;;;0.60;54.40;;;1.09;47.24;97663.75;6235086;23;20024;-35
2022/03/04 03:41:11;;;;;;;32.40;14.67;;;0.50;54.50;;;1.06;47.70;97664.75;6236812;23;20013;-35
2022/03/04 03:43:41;;;;;;;27.33;13.73;;;0.50;55.00;;;1.04;47.04;97669.25;6233601;23;20026;-35
2022/03/04 03:46:09;;;;;;;22.73;12.37;;;0.50;54.70;;;1.01;47.34;97668.63;6235138;23;20020;-35
2022/03/04 03:48:40;;;;;;;25.23;14.77;;;0.50;54.70;;;0.98;47.52;97670.50;6233859;23;20020;-35
2022/03/04 03:51:09;;;;;;;28.37;14.00;;;0.50;54.80;;;0.98;47.28;97669.69;6235685;23;20020;-35
2022/03/04 03:53:38;;;;;;;25.77;13.23;;;0.40;55.00;;;0.96;47.79;97666.31;6236767;23;20035;-35
2022/03/04 03:56:06;;;;;;;22.50;12.40;;;0.40;54.70;;;0.92;47.73;97670.09;6236098;23;20016;-35
2022/03/04 03:58:34;;;;;;;19.17;12.23;;;0.40;54.90;;;0.88;47.04;97669.44;6209446;23;20022;-35
2022/03/04 04:01:04;;;;;;;20.23;12.27;;;0.40;54.90;;;0.89;47.56;97667.66;6237770;23;20018;-35
2022/03/04 04:03:32;;;;;;;18.90;11.47;;;0.30;54.90;;;0.88;46.97;97664.19;6237990;23;20383;-35
2022/03/04 04:06:01;;;;;;;18.93;11.07;;;0.40;55.00;;;0.88;47.92;97669.44;6237170;23;20024;-35
2022/03/04 04:08:29;;;;;;;20.00;11.87;;;0.30;55.20;;;0.86;47.11;97671.31;6236994;23;20016;-35
2022/03/04 04:10:58;;;;;;;19.73;12.30;;;0.30;55.30;;;0.86;47.78;97676.56;6237165;23;20023;-35
2022/03/04 04:13:25;;;;;;;17.37;10.57;;;0.30;55.80;;;0.78;47.91;97677.06;6237176;23;20038;-35
2022/03/04 04:15:53;;;;;;;21.47;12.20;;;0.30;55.70;;;0.78;48.37;97677.06;6235913;23;20028;-35
2022/03/04 04:18:21;;;;;;;19.97;11.80;;;0.20;55.90;;;0.80;48.03;97679.59;6210066;23;20024;-35
2022/03/04 04:20:49;;;;;;;21.17;11.10;;;0.20;56.10;;;0.81;47.72;97672.56;6236604;23;20020;-35
2022/03/04 04:23:17;;;;;;;21.03;11.53;;;0.30;56.00;;;0.78;48.12;97677.06;6235882;23;20022;-35
2022/03/04 04:25:45;;;;;;;17.63;11.27;;;0.20;55.90;;;0.75;48.27;97673.78;6237489;23;20020;-35
2022/03/04 04:28:13;;;;;;;20.60;11.93;;;0.20;56.20;;;0.77;48.07;97674.53;6237891;23;20229;-35
2022/03/04 04:30:41;;;;;;;19.63;11.90;;;0.20;56.40;;;0.75;47.97;97685.09;6209543;23;20237;-35
2022/03/04 04:33:08;;;;;;;21.43;12.53;;;0.20;56.30;;;0.75;48.64;97682.50;6236154;23;20511;-35
2022/03/04 04:35:36;;;;;;;22.93;11.40;;;0.20;56.40;;;0.74;48.69;97682.63;6236981;23;20024;-35
2022/03/04 04:38:04;;;;;;;20.63;12.10;;;0.20;56.90;;;0.72;48.87;97681.88;6235363;23;20031;-35
2022/03/04 04:40:32;;;;;;;23.90;11.73;;;0.20;56.60;;;0.69;48.83;97677.66;6235670;23;20026;-36
2022/03/04 04:43:00;;;;;;;19.03;11.70;;;0.20;56.70;;;0.70;48.34;97686.34;6236485;23;20016;-35
2022/03/04 04:45:28;;;;;;;22.17;11.23;;;0.20;56.80;;;0.71;48.80;97690.66;6234043;23;20194;-35
2022/03/04 04:47:56;;;;;;;21.13;12.63;;;0.20;56.90;;;0.71;48.20;97690.66;6235679;23;20027;-35
2022/03/04 04:50:24;;;;;;;19.23;12.40;;;0.20;56.90;;;0.68;48.99;97693.47;6237013;23;20030;-35
2022/03/04 04:52:51;;;;;;;20.17;11.57;;;0.20;57.60;;;0.65;48.67;97697.13;6237967;23;20015;-35
2022/03/04 04:55:19;;;;;;;18.97;12.00;;;0.10;57.50;;;0.68;49.23;97696.09;6235864;23;20230;-35
2022/03/04 04:57:47;;;;;;;23.17;13.53;;;0.10;57.50;;;0.68;48.89;97696.09;6237637;23;20024;-35
2022/03/04 05:00:15;;;;;;;28.13;15.33;;;0.20;58.00;;;0.67;48.37;97705.72;6236706;23;20020;-35
2022/03/04 05:02:44;;;;;;;27.07;15.67;;;0.10;57.50;;;0.67;49.04;97704.91;6236517;23;20020;-35
2022/03/04 05:05:12;;;;;;;30.43;15.97;;;0.10;58.20;;;0.66;49.26;97708.44;6234443;23;20016;-35
2022/03/04 05:07:40;;;;;;;32.07;15.97;;;0.10;57.90;;;0.65;49.38;97710.22;6210582;23;20012;-35
2022/03/04 05:10:08;;;;;;;34.37;17.37;;;0.10;58.20;;;0.65;48.88;97714.63;6236143;23;20024;-34
2022/03/04 05:12:36;;;;;;;40.87;22.43;;;0.10;57.80;;;0.65;49.53;97718.09;6237079;23;20016;-35
2022/03/04 05:15:05;;;;;;;46.97;22.60;;;0.10;58.10;;;0.63;48.91;97719.13;6236514;23;20020;-35
2022/03/04 05:17:33;;;;;;;39.27;21.37;;;0.10;57.90;;;0.57;49.15;97713.34;6235688;23;20031;-35
2022/03/04 05:20:01;;;;;;;39.83;21.97;;;0.10;57.70;;;0.53;49.03;97719.72;6235636;23;20068;-35
2022/03/04 05:22:29;;;;;;;34.50;18.57;;;0.00;57.80;;;0.51;48.58;97720.75;6233761;23;20016;-35
2022/03/04 05:24:57;;;;;;;28.57;15.27;;;0.00;57.70;;;0.48;48.93;97718.31;6235745;23;20012;-35
2022/03/04 05:27:26;;;;;;;28.27;15.57;;;-0.10;57.90;;;0.46;49.18;97714.94;6236538;23;20067;-35
2022/03/04 05:29:54;;;;;;;26.13;15.73;;;-0.10;57.70;;;0.44;48.85;97722.06;6237131;23;20178;-35
2022/03/04 05:32:21;;;;;;;24.23;13.80;;;-0.10;57.80;;;0.42;49.41;97721.31;6210289;23;20016;-35
2022/03/04 05:34:49;;;;;;;25.50;15.40;;;-0.10;58.20;;;0.42;49.04;97716.91;6236677;23;20221;-35
2022/03/04 05:37:17;;;;;;;28.80;15.43;;;-0.10;58.60;;;0.40;49.71;97721.41;6235998;23;20341;-35
2022/03/04 05:39:45;;;;;;;26.43;14.17;;;-0.20;58.50;;;0.39;49.57;97730.22;6235723;23;20020;-35
2022/03/04 05:42:13;;;;;;;24.73;14.03;;;-0.20;58.90;;;0.39;49.34;97725.81;6235993;23;20016;-35
2022/03/04 05:44:40;;;;;;;26.07;14.03;;;-0.10;58.80;;;0.39;49.77;97730.22;6235701;23;20046;-35
2022/03/04 05:47:08;;;;;;;24.80;14.37;;;-0.10;58.60;;;0.39;49.62;97732.84;6236131;23;20023;-35
2022/03/04 05:49:37;;;;;;;23.53;13.43;;;-0.10;58.70;;;0.31;50.36;97735.06;6236796;23;20188;-35
2022/03/04 05:52:05;;;;;;;30.77;14.40;;;-0.20;58.70;;;0.23;49.68;97745.19;6235797;23;20190;-35
2022/03/04 05:54:33;;;;;;;22.10;14.30;;;-0.30;59.40;;;0.16;49.93;97745.56;6209006;23;20016;-35
2022/03/04 05:57:01;;;;;;;22.70;13.27;;;-0.40;59.20;;;0.10;50.52;97740.72;6236133;23;20024;-35
2022/03/04 05:59:29;;;;;;;23.43;12.97;;;-0.50;59.70;;;0.07;50.40;97746.13;6233972;23;20075;-35
2022/03/04 06:01:57;;;;;;;23.57;12.87;;;-0.50;60.00;;;0.04;50.79;97758.56;6235067;23;20024;-35
2022/03/04 06:04:25;;;;;;;24.47;12.97;;;-0.50;60.80;;;0.03;50.75;97747.25;6234284;23;20030;-35
2022/03/04 06:06:53;;;;;;;25.23;14.23;;;-0.50;60.10;;;0.01;50.91;97745.66;6235369;23;20023;-35
2022/03/04 06:09:21;;;;;;;23.00;12.60;;;-0.50;60.10;;;-0.03;51.34;97751.06;6237021;23;20016;-35
2022/03/04 06:11:49;;;;;;;25.87;13.53;;;-0.60;61.30;;;-0.02;50.60;97751.91;6236178;23;20016;-36
2022/03/04 06:14:16;;;;;;;20.47;12.33;;;-0.50;60.90;;;-0.03;51.38;97753.69;6236513;23;20024;-35
2022/03/04 06:16:44;;;;;;;24.60;12.83;;;-0.60;61.10;;;-0.04;51.36;97752.03;6235148;23;20467;-35
2022/03/04 06:19:12;;;;;;;23.37;13.03;;;-0.60;61.00;;;-0.04;50.63;97748.53;6236323;23;20476;-35
2022/03/04 06:21:40;;;;;;;23.97;12.00;;;-0.60;61.10;;;-0.07;51.41;97743.50;6237793;23;20328;-35
2022/03/04 06:24:08;;;;;;;21.73;10.93;;;-0.60;61.30;;;-0.09;50.93;97750.63;6234153;23;20024;-35
2022/03/04 06:26:36;;;;;;;26.73;13.33;;;-0.70;61.80;;;-0.11;51.18;97749.88;6209260;23;20022;-35
2022/03/04 06:29:04;;;;;;;21.77;12.30;;;-0.60;61.20;;;-0.11;51.13;97761.16;6236869;23;20030;-35
2022/03/04 06:31:31;;;;;;;27.10;12.83;;;-0.60;61.30;;;-0.10;51.91;97751.53;6236531;23;20016;-35
2022/03/04 06:33:59;;;;;;;20.13;11.47;;;-0.60;61.20;;;-0.08;51.42;97771.47;6235697;23;20030;-35
2022/03/04 06:36:27;;;;;;;21.60;11.90;;;-0.60;60.70;;;-0.05;51.33;97762.59;6235669;23;20022;-35
2022/03/04 06:38:55;;;;;;;19.73;11.90;;;-0.50;60.40;;;-0.04;51.77;97765.13;6234658;23;20202;-35
2022/03/04 06:41:23;;;;;;;23.73;12.07;;;-0.50;60.80;;;-0.01;51.50;97764.91;6233868;23;20023;-35
2022/03/04 06:43:51;;;;;;;19.13;12.53;;;-0.50;61.70;;;0.01;51.42;97764.00;6234880;23;20016;-35
2022/03/04 06:46:19;;;;;;;26.27;12.23;;;-0.40;60.00;;;0.02;51.60;97766.53;6236067;23;20034;-35
2022/03/04 06:48:47;;;;;;;23.67;10.50;;;-0.40;59.90;;;0.05;51.39;97771.56;6234193;23;20016;-35
2022/03/04 06:51:15;;;;;;;21.97;12.10;;;-0.40;59.80;;;0.13;51.26;97777.16;6237120;23;20020;-35
2022/03/04 06:53:43;;;;;;;19.17;11.87;;;-0.30;59.90;;;0.18;51.32;97776.91;6234009;23;20024;-35
2022/03/04 06:56:10;;;;;;;23.17;12.10;;;-0.20;59.60;;;0.24;51.46;97780.94;6236706;23;20011;-35
2022/03/04 06:58:40;;;;;;;16.50;10.70;;;-0.10;59.30;;;0.26;50.92;97782.50;6234040;23;20396;-35
2022/03/04 07:01:08;;;;;;;22.63;13.10;;;-0.10;59.20;;;0.32;51.37;97790.00;6185265;23;20020;-35
2022/03/04 07:03:37;;;;;;;23.17;11.87;;;0.00;59.20;;;0.36;50.79;97793.25;6236177;23;20320;-35
2022/03/04 07:06:04;;;;;;;22.97;11.57;;;0.00;58.90;;;0.41;51.00;97798.22;6235767;23;20030;-35
2022/03/04 07:08:36;;;;;;;27.90;12.67;;;0.00;58.90;;;0.43;50.53;97799.81;6234580;23;20016;-36
2022/03/04 07:11:04;;;;;;;27.03;14.37;;;0.10;58.60;;;0.47;50.71;97805.72;6246193;23;20016;-35
2022/03/04 07:13:57;;;;;;;21.67;12.67;;;0.10;58.70;;;0.53;51.02;97814.03;6234873;23;20035;-35
2022/03/04 07:16:25;;;;;;;26.63;12.93;;;0.20;59.50;;;0.57;50.32;97820.75;6235685;23;20152;-35
2022/03/04 07:18:53;;;;;;;25.37;14.77;;;0.20;58.90;;;0.59;51.23;97824.13;6234594;23;20022;-35
2022/03/04 07:21:20;;;;;;;28.13;14.07;;;0.20;58.70;;;0.66;50.89;97821.13;6236010;23;20293;-36
2022/03/04 07:23:48;;;;;;;22.70;14.07;;;0.30;58.60;;;0.71;50.35;97826.94;6235862;23;20012;-35
2022/03/04 07:26:16;;;;;;;24.87;13.93;;;0.40;58.60;;;0.76;50.49;97836.19;6206187;23;20016;-35
2022/03/04 07:28:44;;;;;;;25.67;14.67;;;0.40;58.60;;;0.78;50.32;97833.47;6236215;23;20314;-35
2022/03/04 07:31:12;;;;;;;23.17;12.90;;;0.40;58.30;;;0.83;51.24;97838.41;6232864;23;20028;-35
2022/03/04 07:33:40;;;;;;;22.87;12.83;;;0.50;58.50;;;0.87;50.19;97840.75;6233078;23;20016;-35
2022/03/04 07:36:08;;;;;;;21.47;13.00;;;0.50;58.30;;;0.88;50.98;97842.44;6233918;23;20391;-35
2022/03/04 07:38:36;;;;;;;22.47;12.93;;;0.50;58.50;;;0.93;50.91;97839.53;6236619;23;20310;-35
2022/03/04 07:41:04;;;;;;;24.03;12.33;;;0.60;58.40;;;0.96;50.53;97842.78;6237215;23;20027;-35
2022/03/04 07:43:31;;;;;;;24.00;12.43;;;0.60;58.10;;;1.01;51.17;97847.78;6236777;23;20020;-35
2022/03/04 07:45:59;;;;;;;23.53;13.60;;;0.60;58.00;;;1.03;50.68;97839.78;6234161;23;20020;-35
2022/03/04 07:48:27;;;;;;;27.10;14.63;;;0.60;57.90;;;1.05;50.21;97835.28;6234873;23;20020;-35
2022/03/04 07:50:56;;;;;;;25.30;13.03;;;0.70;57.80;;;1.11;51.14;97837.53;6235333;23;20024;-35
2022/03/04 07:53:24;;;;;;;23.10;13.80;;;0.80;57.90;;;1.14;50.17;97839.94;6235677;23;20016;-35
2022/03/04 07:55:51;;;;;;;29.03;16.40;;;0.80;57.70;;;1.19;50.54;97840.50;6235661;23;20016;-35
2022/03/04 07:58:19;;;;;;;32.87;18.23;;;0.80;57.50;;;1.22;50.12;97836.84;6235490;23;20024;-35
2022/03/04 08:00:47;;;;;;;34.27;16.83;;;0.90;57.70;;;1.24;50.43;97832.34;6234502;23;20206;-35
2022/03/04 08:03:35;;;;;;;24.43;14.73;;;0.90;57.70;;;1.26;50.38;97833.94;6235386;23;20018;-35
2022/03/04 08:06:04;;;;;;;26.23;13.20;;;0.90;57.90;;;1.30;50.98;97827.56;6234333;23;20030;-35
2022/03/04 08:08:32;;;;;;;23.03;13.57;;;1.00;58.00;;;1.35;50.70;97835.13;6234444;23;20035;-36
2022/03/04 08:11:01;;;;;;;28.90;14.43;;;1.00;58.00;;;1.38;50.31;97837.56;6233753;23;20028;-36
2022/03/04 08:13:29;;;;;;;27.43;14.50;;;1.00;57.90;;;1.40;50.30;97838.28;6233175;23;20035;-36
2022/03/04 08:15:58;;;;;;;34.73;15.90;;;1.00;57.90;;;1.43;50.42;97840.72;6234178;23;20207;-37
2022/03/04 08:18:26;;;;;;;31.20;17.60;;;1.10;57.90;;;1.45;50.99;97851.09;6234541;23;20030;-36
2022/03/04 08:20:54;;;;;;;27.57;15.67;;;1.10;57.90;;;1.48;50.70;97845.66;6235112;23;20306;-36
2022/03/04 08:23:22;;;;;;;28.57;13.97;;;1.20;57.90;;;1.52;50.68;97841.91;6235139;23;20013;-36
2022/03/04 08:25:50;;;;;;;29.53;15.53;;;1.20;58.10;;;1.55;51.12;97847.81;6235429;23;20026;-36
2022/03/04 08:28:18;;;;;;;27.57;14.17;;;1.20;57.90;;;1.59;50.95;97837.94;6232636;23;20030;-36
2022/03/04 08:30:46;;;;;;;23.43;13.50;;;1.30;57.60;;;1.65;50.29;97840.16;6234900;23;20020;-36
2022/03/04 08:33:14;;;;;;;24.37;13.77;;;1.40;57.20;;;1.69;50.35;97844.28;6235235;23;20022;-36
2022/03/04 08:35:42;;;;;;;25.67;13.53;;;1.40;57.20;;;1.76;50.51;97842.06;6235137;23;20204;-36
2022/03/04 08:38:10;;;;;;;25.70;14.63;;;1.50;57.30;;;1.79;50.61;97855.00;6235734;23;20016;-36
2022/03/04 08:40:37;;;;;;;23.13;13.00;;;1.50;57.00;;;1.85;50.79;97845.88;6237656;23;20027;-36
2022/03/04 08:43:05;;;;;;;26.17;14.80;;;1.60;57.00;;;1.89;50.23;97844.72;6237116;23;20024;-36
2022/03/04 08:45:34;;;;;;;27.57;18.30;;;1.60;57.00;;;1.91;50.65;97843.69;6235459;23;20038;-35
2022/03/04 08:48:06;;;;;;;28.00;15.20;;;1.60;57.10;;;1.96;50.10;97841.59;6236484;23;20026;-35
2022/03/04 08:50:34;;;;;;;26.97;14.03;;;1.70;57.20;;;2.01;50.72;97851.78;6245903;23;20028;-35
2022/03/04 08:53:08;;;;;;;;;;;1.70;57.30;;;2.00;50.22;97854.50;6247803;23;20046;-35
2022/03/04 08:55:36;;;;;;;26.13;13.33;;;1.70;57.50;;;2.06;50.50;97854.94;6236952;23;19920;-35
2022/03/04 08:58:04;;;;;;;28.60;14.67;;;1.80;57.10;;;2.11;49.99;97850.25;6236872;23;20314;-36
2022/03/04 09:00:32;;;;;;;25.57;14.03;;;1.80;56.90;;;2.16;50.15;97858.63;6233422;23;20022;-35
2022/03/04 09:03:00;;;;;;;28.03;14.07;;;1.90;57.00;;;2.23;50.51;97863.47;6235426;23;20026;-35
2022/03/04 09:05:29;;;;;;;29.03;14.67;;;1.90;56.20;;;2.28;49.94;97859.59;6235176;23;20035;-35
2022/03/04 09:07:57;;;;;;;24.97;14.03;;;2.00;56.10;;;2.34;50.04;97864.41;6236642;23;20020;-36
2022/03/04 09:10:24;;;;;;;32.77;17.00;;;2.10;56.00;;;2.41;50.34;97858.78;6235318;23;20034;-36
2022/03/04 09:12:52;;;;;;;32.67;15.97;;;2.20;56.10;;;2.44;49.83;97862.00;6236879;23;20030;-36
2022/03/04 09:15:21;;;;;;;28.03;14.47;;;2.20;55.90;;;2.48;50.10;97853.00;6234929;23;20337;-36
2022/03/04 09:17:49;;;;;;;26.73;15.47;;;2.20;56.00;;;2.54;50.03;97862.25;6235645;23;20187;-36
2022/03/04 09:20:19;;;;;;;27.47;14.30;;;2.30;56.00;;;2.56;49.77;97858.56;6235996;23;20019;-36
2022/03/04 09:22:47;;;;;;;27.47;15.40;;;2.40;55.80;;;2.60;49.93;97853.06;6237220;23;20020;-36
2022/03/04 09:25:15;;;;;;;25.97;15.43;;;2.40;55.80;;;2.62;49.93;97857.28;6236010;23;20012;-36
2022/03/04 09:27:46;;;;;;;26.37;15.17;;;2.40;55.50;;;2.66;50.05;97857.94;6237257;23;20020;-36
2022/03/04 09:30:14;;;;;;;28.50;16.17;;;2.50;55.40;;;2.71;49.72;97858.44;6234919;23;20225;-36
2022/03/04 09:32:42;;;;;;;31.47;14.90;;;2.50;55.50;;;2.76;49.53;97859.78;6235009;23;20024;-36
2022/03/04 09:35:10;;;;;;;25.67;15.57;;;2.50;55.30;;;2.80;49.47;97855.16;6236422;23;20047;-36
2022/03/04 09:37:38;;;;;;;26.47;16.47;;;2.60;55.20;;;2.85;49.38;97855.69;6235995;23;20012;-37
2022/03/04 09:40:08;;;;;;;27.40;16.03;;;2.60;54.90;;;2.92;49.55;97862.19;6208066;23;20022;-37
2022/03/04 09:42:36;;;;;;;29.47;17.07;;;2.70;54.90;;;2.96;49.59;97858.38;6237484;23;20019;-35
2022/03/04 09:45:05;;;;;;;28.53;16.73;;;2.80;54.70;;;3.01;49.37;97865.13;6236199;23;20020;-35
2022/03/04 09:47:33;;;;;;;32.17;17.83;;;2.80;54.50;;;3.06;49.13;97863.81;6234498;23;20221;-36
2022/03/04 09:50:03;;;;;;;29.73;17.90;;;2.90;54.50;;;3.09;49.34;97861.00;6208094;23;20031;-36
2022/03/04 09:52:31;;;;;;;28.73;16.57;;;2.90;54.40;;;3.13;48.97;97867.72;6235275;23;20329;-36
2022/03/04 09:55:00;;;;;;;30.10;16.37;;;2.90;54.00;;;3.19;48.87;97862.97;6234398;23;20015;-37
2022/03/04 09:57:27;;;;;;;31.33;16.40;;;3.00;54.10;;;3.24;48.80;97863.47;6234261;23;20020;-37
2022/03/04 09:59:56;;;;;;;32.20;17.53;;;3.10;54.10;;;3.29;48.56;97859.56;6234599;23;20028;-35
2022/03/04 10:02:25;;;;;;;29.60;16.70;;;3.10;53.90;;;3.34;48.69;97860.06;6233910;23;20016;-36
2022/03/04 10:05:01;;;;;;;39.63;21.13;;;3.10;53.70;;;3.41;48.48;97859.63;6235962;23;20364;-36
2022/03/04 10:07:49;;;;;;;34.23;19.97;;;3.20;53.10;;;3.46;48.49;97852.25;6235314;23;20016;-36
2022/03/04 10:10:22;;;;;;;29.53;15.47;;;3.30;52.70;;;3.51;48.40;97860.66;6245774;23;20230;-36
2022/03/04 10:12:57;;;;;;;26.50;16.50;;;3.40;52.70;;;3.55;48.08;97855.06;6246531;23;20213;-36
2022/03/04 10:15:25;;;;;;;28.63;15.63;;;3.40;52.30;;;3.63;47.82;97856.28;6247317;23;20024;-37
2022/03/04 10:18:04;;;;;;;32.97;15.43;;;3.50;52.50;;;3.68;47.97;97854.16;6235969;23;20024;-37
2022/03/04 10:20:39;;;;;;;26.73;15.97;;;3.50;52.30;;;3.71;47.84;97861.81;6235449;23;20020;-36
2022/03/04 10:23:22;;;;;;;25.37;15.90;;;3.60;52.20;;;3.73;47.09;97857.28;6245874;23;20012;-37